Terminal Aerodrome Forecast
Issued by NWS

Home | Current Version | Previous Version | Text Only | Print | Product List | Glossary On
Versions: 1 2 3 4 5 6 7 8 9 10 11 12 13 14 15 16 17 18
790
FTUS43 KPAH 172320
TAFCGI
TAF
KCGI 172320Z 1800/1824 VRB02KT P6SM FEW080 BKN150
     FM180700 00000KT 5SM BR BKN080
     FM181400 22005KT P6SM SCT050 BKN120 PROB30 1814/1820 5SM -SHRA
      BKN035=

USA.gov is the U.S. government's official web portal to all federal, state and local government web resources and services.